TFM - Tactical Decision Aid
ID: Runway Winds: CIG/VIS Threshold:

KDTW - Detroit Metro/Wayne, MI, US

Updated at: 0102 UTC 12 May 2021
Latest TAF at: 2320 UTC 11 May 2021

TAF Board

Time0053Z 12/02Z 12/03Z 12/04Z 12/05Z 12/06Z 12/07Z 12/08Z 12/09Z 12/10Z 12/11Z 12/12Z 12/13Z 12/14Z>>
Type OBS PRVL PRVL PRVL PRVL PRVL PRVL PRVL PRVL PRVL PRVL PRVL PRVL PRVL
VIS 10 >6 >6 >6 >6 >6 >6 >6 >6 >6 >6 >6 >6 >6
CIG -- -- -- -- -- -- -- -- -- -- -- -- -- --
Cover SCT SCT SCT SCT SCT SKC SKC SKC SKC SKC SKC SKC SKC SKC
FltCat VFR VFR VFR VFR VFR VFR VFR VFR VFR VFR VFR VFR VFR VFR
WX -- -- -- -- -- -- -- -- -- -- -- -- -- --
WDir 360 320 330 330 330 330 330 330 330 330 330 330 330 330
WSpd 5 12 7 7 7 5 5 5 5 5 5 5 5 5
WGst -- -- -- -- -- -- -- -- -- -- -- -- -- --

TDA Impact Legend

  None Marginal Slight Moderate High
Visibility (sm) >5 3≤X≤5 1≤X<3 0.5≤X<1 <0.5
Ceiling (100 ft) >30 10≤X≤30 4≤X<10 2≤X<4 <2
Wind Speed (kt) <15 15≤X<25 25≤X<30 ≥30
Wind Gust (kt) <15 15≤X<25 25≤X<35 ≥35
Weather No Wx Reported VCTS -TS,-FZRA TS,FZRA +TS,+FZRA
TAF
KDTW 112320Z 1200/1306 31013G21KT P6SM BKN080
  FM120100 32012KT P6SM SCT080
  FM120300 33007KT P6SM SCT100
  FM120600 33005KT P6SM SKC
  FM121600 33009KT P6SM SKC


METAR
KDTW 120053Z 36005KT 10SM SCT065 09/M02 A3028 RMK AO2 SLP257 T00941022
KDTW 112353Z 35006KT 10SM SCT085 11/M03 A3026 RMK AO2 SLP250 60000 T01111028 10133 20089 53011
KDTW 112253Z 32013G21KT 10SM SCT090 12/M03 A3024 RMK AO2 SLP243 T01171033
KDTW 112153Z 32015G24KT 10SM SCT090 12/M03 A3023 RMK AO2 RAE2056 SLP241 P0000 T01171033

Radar Display
Forecast Discussion